Time;durP1;ratioP1;P1;durP2;ratioP2;P2;SDS_P1;SDS_P2;PMS_P1;PMS_P2;Temp;Humidity;BMP_temperature;BMP_pressure;BME280_temperature;BME280_humidity;BME280_pressure;Samples;Min_cycle;Max_cycle;Signal;HPM_P1;HPM_P2
2021/06/22 00:00:29;;;;;;;;;5.40;5.40;;;;;31.78;51.40;98478.34;5034020;28;8842;-72
2021/06/22 00:02:57;;;;;;;;;7.50;7.50;;;;;31.81;51.18;98480.22;5032526;28;8839;-72
2021/06/22 00:05:27;;;;;;;;;9.00;9.00;;;;;31.68;51.10;98454.72;5034202;28;8846;-72
2021/06/22 00:07:56;;;;;;;;;7.00;7.00;;;;;31.85;50.90;98480.19;5033843;28;8917;-72
2021/06/22 00:10:28;;;;;;;;;2.60;2.60;;;;;31.86;50.82;98495.34;5033876;28;8819;-72
2021/06/22 00:12:57;;;;;;;;;6.25;6.25;;;;;31.86;50.62;98495.34;5033705;28;8847;-72
2021/06/22 00:15:28;;;;;;;;;5.00;5.00;;;;;31.87;50.00;98491.44;5033915;28;9579;-72
2021/06/22 00:17:57;;;;;;;;;6.60;6.60;;;;;31.91;50.42;98503.84;5033748;28;8842;-72
2021/06/22 00:20:26;;;;;;;;;5.80;5.80;;;;;31.79;50.04;98483.38;5033767;28;8850;-72
2021/06/22 00:22:55;;;;;;;;;5.00;5.00;;;;;31.94;49.93;98502.25;5033609;28;8847;-72
2021/06/22 00:25:25;;;;;;;;;4.40;4.40;;;;;31.77;49.80;98476.78;5033933;28;8853;-71
2021/06/22 00:27:55;;;;;;;;;5.60;5.60;;;;;31.99;49.92;98504.50;5033464;28;8924;-72
2021/06/22 00:30:24;;;;;;;;;4.00;4.00;;;;;31.99;49.91;98505.25;5033425;28;9646;-71
2021/06/22 00:32:53;;;;;;;;;8.80;8.60;;;;;32.02;49.65;98506.38;5033364;28;8831;-72
2021/06/22 00:35:21;;;;;;;;;6.80;5.60;;;;;31.99;50.04;98493.56;5033279;28;8834;-71
2021/06/22 00:37:51;;;;;;;;;5.40;5.40;;;;;31.99;49.47;98499.03;5033304;28;8839;-71
2021/06/22 00:40:19;;;;;;;;;5.80;5.80;;;;;32.02;49.83;98504.44;5033295;28;8874;-71
2021/06/22 00:42:48;;;;;;;;;4.00;4.00;;;;;32.06;48.96;98509.81;5033436;28;8853;-71
2021/06/22 00:45:26;;;;;;;;;6.00;6.00;;;;;32.10;49.39;98516.00;5033433;28;8834;-71
2021/06/22 00:47:55;;;;;;;;;8.20;6.20;;;;;32.07;49.47;98517.59;5033824;28;8834;-71
2021/06/22 00:50:25;;;;;;;;;5.60;5.60;;;;;32.15;48.98;98526.44;5033374;28;8861;-71
2021/06/22 00:52:54;;;;;;;;;4.80;4.80;;;;;32.14;48.04;98524.88;5033162;28;8918;-71
2021/06/22 00:55:29;;;;;;;;;5.40;5.40;;;;;32.10;47.82;98521.44;5033585;28;8842;-71
2021/06/22 00:58:19;;;;;;;;;6.60;6.60;;;;;32.19;48.07;98543.50;5032741;28;9725;-73
2021/06/22 01:00:48;;;;;;;;;5.20;5.20;;;;;32.23;48.18;98546.22;5032956;28;8827;-71
2021/06/22 01:03:17;;;;;;;;;5.20;5.20;;;;;32.25;48.64;98541.88;5031877;28;9638;-73
2021/06/22 01:05:45;;;;;;;;;3.80;3.80;;;;;32.28;46.93;98553.94;5032613;28;8846;-72
2021/06/22 01:08:14;;;;;;;;;4.60;4.60;;;;;32.22;46.52;98542.69;5032844;28;8936;-73
2021/06/22 01:10:43;;;;;;;;;5.00;5.00;;;;;32.29;46.14;98542.59;5032711;28;8859;-73
2021/06/22 01:13:12;;;;;;;;;4.00;4.00;;;;;32.29;46.40;98537.13;5032703;28;8838;-72
2021/06/22 01:15:40;;;;;;;;;4.40;4.40;;;;;32.25;45.79;98528.22;5032225;28;8842;-72
2021/06/22 01:18:09;;;;;;;;;4.80;4.80;;;;;32.38;49.07;98548.28;5032006;28;8892;-73
2021/06/22 01:20:38;;;;;;;;;5.60;5.60;;;;;32.34;48.05;98542.13;5032808;28;8939;-73
2021/06/22 01:23:07;;;;;;;;;6.75;6.75;;;;;32.43;48.40;98552.47;5032436;28;8859;-74
2021/06/22 01:25:37;;;;;;;;;3.80;3.80;;;;;32.39;46.66;98546.31;5031686;28;8835;-72
2021/06/22 01:28:06;;;;;;;;;3.80;3.80;;;;;32.46;46.72;98554.38;5032405;28;8859;-73
2021/06/22 01:30:34;;;;;;;;;5.40;5.40;;;;;32.47;47.35;98561.38;5047590;28;8830;-72
2021/06/22 01:33:05;;;;;;;;;6.80;6.80;;;;;32.50;47.87;98563.28;5032235;28;8838;-74
2021/06/22 01:35:34;;;;;;;;;4.20;4.20;;;;;32.51;47.60;98564.78;5031177;28;8850;-73
2021/06/22 01:38:06;;;;;;;;;4.80;4.80;;;;;32.53;47.26;98564.38;5032212;28;8929;-73
2021/06/22 01:40:50;;;;;;;;;5.00;5.00;;;;;32.57;47.84;98567.81;5031801;28;8858;-73
2021/06/22 01:43:23;;;;;;;;;5.20;5.20;;;;;32.57;48.00;98571.31;5031326;28;8906;-73
2021/06/22 01:45:51;;;;;;;;;7.20;7.20;;;;;32.59;48.20;98570.91;5031219;28;8842;-72
2021/06/22 01:48:20;;;;;;;;;6.40;5.60;;;;;32.59;48.34;98570.91;5031446;28;8831;-72
2021/06/22 01:50:49;;;;;;;;;8.40;8.40;;;;;32.57;48.46;98573.28;5031836;28;9095;-73
2021/06/22 01:53:17;;;;;;;;;6.40;6.40;;;;;32.64;48.57;98592.25;5031271;28;8846;-73
2021/06/22 01:55:52;;;;;;;;;7.60;7.60;;;;;32.60;49.08;98586.09;5030060;28;8870;-73
2021/06/22 01:58:22;;;;;;;;;7.40;7.40;;;;;32.56;49.63;98588.88;5031786;28;8925;-72
2021/06/22 02:00:55;;;;;;;;;7.60;7.60;;;;;32.55;49.19;98590.06;5029997;28;8835;-73
2021/06/22 02:03:27;;;;;;;;;7.80;7.80;;;;;32.40;48.95;98573.19;5026546;28;8949;-71
2021/06/22 02:05:56;;;;;;;;;7.00;6.60;;;;;32.53;48.40;98587.00;5031342;28;8843;-70
2021/06/22 02:08:24;;;;;;;;;5.60;5.60;;;;;32.51;48.40;98586.63;5030569;28;8908;-70
2021/06/22 02:10:53;;;;;;;;;5.60;5.60;;;;;32.53;47.83;98589.72;5030055;28;8843;-71
2021/06/22 02:13:22;;;;;;;;;4.00;4.00;;;;;32.50;47.99;98587.84;5028876;28;8831;-71
2021/06/22 02:15:50;;;;;;;;;5.20;4.80;;;;;32.56;48.02;98596.31;5027515;28;8859;-71
2021/06/22 02:18:20;;;;;;;;;5.80;5.80;;;;;32.50;47.46;98587.84;5030398;28;8831;-71
2021/06/22 02:20:49;;;;;;;;;4.80;4.80;;;;;32.55;46.91;98595.53;5031123;28;9571;-71
2021/06/22 02:23:17;;;;;;;;;4.40;4.40;;;;;32.55;46.88;98592.03;5026826;28;8835;-73
2021/06/22 02:25:47;;;;;;;;;4.60;4.60;;;;;32.61;47.13;98590.38;5030396;28;8914;-70
2021/06/22 02:28:21;;;;;;;;;3.20;3.20;;;;;32.64;47.01;98595.75;5030172;28;8913;-70
2021/06/22 02:30:53;;;;;;;;;5.00;5.00;;;;;32.64;47.30;98593.03;5025888;28;8854;-70
2021/06/22 02:33:22;;;;;;;;;5.60;4.80;;;;;32.67;47.41;98596.88;5031023;28;8916;-74
2021/06/22 02:35:52;;;;;;;;;5.80;5.80;;;;;32.71;46.98;98603.06;5030410;28;8854;-72
2021/06/22 02:38:20;;;;;;;;;4.40;4.40;;;;;32.74;47.00;98602.22;5031114;28;8866;-73
2021/06/22 02:40:50;;;;;;;;;4.20;4.20;;;;;32.76;47.37;98599.88;5033089;28;8811;-71
2021/06/22 02:43:18;;;;;;;;;5.60;5.60;;;;;32.80;47.79;98594.34;5033318;28;8834;-72
2021/06/22 02:45:47;;;;;;;;;4.20;4.20;;;;;32.76;46.92;98583.47;5032146;28;8920;-72
2021/06/22 02:48:16;;;;;;;;;3.80;3.80;;;;;32.84;46.73;98595.81;5033525;28;8850;-70
2021/06/22 02:50:45;;;;;;;;;4.40;4.40;;;;;32.87;47.32;98594.22;5030365;28;8846;-71
2021/06/22 02:53:13;;;;;;;;;3.20;3.20;;;;;32.87;47.02;98588.75;5034322;28;8864;-70
2021/06/22 02:55:42;;;;;;;;;3.60;3.60;;;;;32.96;46.65;98597.91;5034520;28;8917;-70
2021/06/22 02:58:11;;;;;;;;;4.60;4.60;;;;;32.97;47.26;98594.00;5034411;28;9600;-72
2021/06/22 03:00:39;;;;;;;;;4.60;4.60;;;;;33.05;46.85;98594.63;5033615;28;8819;-72
2021/06/22 03:03:08;;;;;;;;;5.00;5.00;;;;;33.06;46.66;98587.97;5033555;28;8848;-71
2021/06/22 03:05:37;;;;;;;;;4.40;4.40;;;;;33.10;46.47;98594.13;5033418;28;8842;-73
2021/06/22 03:08:05;;;;;;;;;2.80;2.80;;;;;33.10;46.63;98583.22;5033072;28;8892;-73
2021/06/22 03:10:34;;;;;;;;;6.00;6.00;;;;;33.17;46.45;98593.22;5033037;28;8842;-70
2021/06/22 03:13:03;;;;;;;;;3.80;3.40;;;;;33.13;46.02;98570.66;5032981;28;8847;-70
2021/06/22 03:15:31;;;;;;;;;2.20;2.20;;;;;33.20;46.31;98584.19;5032675;28;8823;-72
2021/06/22 03:18:00;;;;;;;;;4.00;4.00;;;;;33.30;46.41;98584.00;5032049;28;8867;-71
2021/06/22 03:20:29;;;;;;;;;3.80;3.80;;;;;33.33;46.87;98585.88;5031656;28;8847;-71
2021/06/22 03:22:58;;;;;;;;;7.80;7.80;;;;;33.36;47.10;98570.59;5032993;28;8831;-72
2021/06/22 03:25:26;;;;;;;;;2.40;2.40;;;;;33.24;46.79;98554.81;5031190;28;8948;-71
2021/06/22 03:27:56;;;;;;;;;5.00;5.00;;;;;33.47;46.76;98575.81;5032069;28;8835;-70
2021/06/22 03:30:25;;;;;;;;;5.00;5.00;;;;;33.55;46.35;98588.91;5032577;28;8847;-72
2021/06/22 03:32:54;;;;;;;;;5.40;5.40;;;;;33.62;46.63;98585.25;5031771;28;8815;-73
2021/06/22 03:35:28;;;;;;;;;4.80;4.00;;;;;33.63;46.09;98581.31;5032853;28;8834;-73
2021/06/22 03:37:57;;;;;;;;;3.00;3.00;;;;;33.72;45.84;98593.22;5026676;28;8867;-74
2021/06/22 03:40:26;;;;;;;;;4.80;4.80;;;;;33.74;45.89;98583.81;5034016;28;8835;-73
2021/06/22 03:42:55;;;;;;;;;4.20;3.00;;;;;33.79;46.55;98570.41;5034464;28;8862;-72
2021/06/22 03:45:24;;;;;;;;;5.00;5.00;;;;;33.95;44.94;98580.59;5033901;28;8847;-70
2021/06/22 03:47:54;;;;;;;;;4.00;4.00;;;;;33.95;45.97;98566.91;5033417;28;8867;-71
2021/06/22 03:50:22;;;;;;;;;4.80;4.80;;;;;34.06;45.80;98578.34;5033898;28;9697;-71
2021/06/22 03:52:51;;;;;;;;;4.00;3.00;;;;;34.07;45.37;98577.16;5033269;28;8882;-72
2021/06/22 03:55:26;;;;;;;;;3.40;3.40;;;;;34.09;45.44;98563.81;5031307;28;8910;-71
2021/06/22 03:57:59;;;;;;;;;5.60;4.40;;;;;34.15;45.17;98572.28;5031972;28;8839;-70
2021/06/22 04:00:29;;;;;;;;;5.00;5.00;;;;;34.15;45.15;98578.53;5032423;28;8815;-70
2021/06/22 04:03:00;;;;;;;;;3.40;3.40;;;;;34.17;45.48;98576.13;5029828;28;8839;-71
2021/06/22 04:05:30;;;;;;;;;4.80;4.80;;;;;34.18;45.16;98572.19;5032142;28;8859;-71
2021/06/22 04:08:00;;;;;;;;;4.20;4.20;;;;;34.20;45.44;98561.59;5031912;28;8867;-71
2021/06/22 04:10:30;;;;;;;;;5.00;5.00;;;;;34.26;45.33;98565.34;5030152;28;8866;-70
2021/06/22 04:12:59;;;;;;;;;4.20;4.20;;;;;34.26;45.10;98553.63;5032195;28;8936;-70
2021/06/22 04:15:28;;;;;;;;;6.20;5.60;;;;;34.37;45.53;98553.38;5029433;28;8827;-69
2021/06/22 04:18:03;;;;;;;;;3.20;3.20;;;;;34.39;45.59;98550.97;5032265;28;8920;-70
2021/06/22 04:20:32;;;;;;;;;5.40;4.80;;;;;34.45;45.49;98555.50;5032080;28;8866;-69
2021/06/22 04:23:01;;;;;;;;;5.00;4.00;;;;;34.50;45.42;98551.47;5031292;28;8973;-69
2021/06/22 04:25:30;;;;;;;;;4.20;4.20;;;;;34.53;45.02;98545.13;5035292;28;8838;-69
2021/06/22 04:28:01;;;;;;;;;5.00;5.00;;;;;34.53;45.42;98543.16;5030629;28;8843;-69
2021/06/22 04:30:32;;;;;;;;;5.40;5.40;;;;;34.65;44.69;98545.16;5031297;28;8854;-69
2021/06/22 04:33:02;;;;;;;;;4.40;4.40;;;;;34.73;43.99;98543.00;5031479;28;8931;-69
2021/06/22 04:35:31;;;;;;;;;4.20;4.20;;;;;34.79;44.34;98549.50;5031446;28;8964;-70
2021/06/22 04:38:02;;;;;;;;;7.00;7.00;;;;;34.79;44.29;98540.50;5031274;28;8843;-69
2021/06/22 04:40:32;;;;;;;;;8.80;7.40;;;;;34.85;44.75;98550.53;5031035;28;8936;-69
2021/06/22 04:43:01;;;;;;;;;4.60;4.60;;;;;34.88;44.22;98549.66;5031357;28;8838;-69
2021/06/22 04:45:30;;;;;;;;;3.00;3.00;;;;;34.87;44.43;98533.66;5029921;28;8881;-69
2021/06/22 04:47:59;;;;;;;;;4.40;4.40;;;;;34.90;44.35;98536.28;5030966;28;9600;-70
2021/06/22 04:50:29;;;;;;;;;5.00;5.00;;;;;34.96;44.04;98531.81;5028185;28;8851;-69
2021/06/22 04:53:09;;;;;;;;;3.40;3.40;;;;;34.99;44.10;98524.69;5030934;28;9650;-69
2021/06/22 04:55:38;;;;;;;;;4.20;4.20;;;;;35.07;43.81;98536.22;5029970;28;8904;-69
2021/06/22 04:58:07;;;;;;;;;6.20;6.20;;;;;35.00;43.85;98526.22;5028555;28;8807;-70
2021/06/22 05:00:36;;;;;;;;;4.00;4.00;;;;;35.02;44.02;98523.03;5030375;28;8838;-69
2021/06/22 05:03:06;;;;;;;;;5.80;5.80;;;;;35.06;44.15;98526.44;5030487;28;8900;-69
2021/06/22 05:05:35;;;;;;;;;5.20;5.20;;;;;35.12;44.12;98524.66;5030610;28;8835;-70
2021/06/22 05:08:04;;;;;;;;;4.20;4.20;;;;;35.19;44.17;98521.72;5031002;28;8897;-71
2021/06/22 05:10:33;;;;;;;;;4.20;4.20;;;;;35.22;44.02;98531.81;5030744;28;8938;-70
2021/06/22 05:13:03;;;;;;;;;4.00;4.00;;;;;35.14;43.91;98517.53;5031271;28;9575;-72
2021/06/22 05:15:32;;;;;;;;;2.80;2.80;;;;;35.28;43.75;98516.34;5030705;28;8855;-70
2021/06/22 05:18:01;;;;;;;;;4.00;4.00;;;;;35.31;43.51;98504.53;5045886;28;8858;-70
2021/06/22 05:20:33;;;;;;;;;78.00;74.00;;;;;35.42;43.58;98509.69;5027788;28;8849;-70
2021/06/22 05:23:01;;;;;;;;;5.00;5.00;;;;;35.60;43.10;98515.38;5028766;28;11637;-70
2021/06/22 05:25:38;;;;;;;;;6.60;6.60;;;;;35.73;43.61;98507.13;5031196;28;8846;-70
2021/06/22 05:28:07;;;;;;;;;3.40;3.40;;;;;35.83;43.02;98504.06;5026929;28;8851;-70
2021/06/22 05:30:36;;;;;;;;;3.80;3.80;;;;;35.90;42.66;98492.84;5023749;28;8858;-70
2021/06/22 05:33:06;;;;;;;;;6.60;6.60;;;;;35.91;42.83;98497.13;5025810;28;8858;-70
2021/06/22 05:35:43;;;;;;;;;3.20;3.20;;;;;36.05;42.86;98497.88;5031291;28;8909;-69
2021/06/22 05:38:12;;;;;;;;;5.20;5.20;;;;;36.07;43.31;98492.69;5029084;28;8859;-69
2021/06/22 05:40:46;;;;;;;;;6.00;6.00;;;;;36.06;42.72;98485.69;5026926;28;8918;-71
2021/06/22 05:43:15;;;;;;;;;5.40;5.40;;;;;36.00;43.35;98468.22;5024807;28;8900;-71
2021/06/22 05:45:43;;;;;;;;;4.60;4.60;;;;;36.06;42.66;98469.97;5027674;28;8896;-70
2021/06/22 05:48:12;;;;;;;;;6.00;6.00;;;;;36.26;42.13;98484.16;5028919;28;9579;-72
2021/06/22 05:50:41;;;;;;;;;4.00;4.00;;;;;36.32;41.78;98462.44;5044656;28;8905;-71
2021/06/22 05:53:10;;;;;;;;;4.80;4.80;;;;;36.49;42.70;98477.47;5029254;28;8997;-70
2021/06/22 05:55:38;;;;;;;;;7.20;7.20;;;;;36.53;41.33;98456.13;5029174;28;9626;-69
2021/06/22 05:58:07;;;;;;;;;5.20;5.20;;;;;36.64;41.16;98463.22;5028139;28;8847;-69
2021/06/22 06:00:45;;;;;;;;;5.80;5.80;;;;;36.70;41.56;98461.41;5028899;28;8851;-69
2021/06/22 06:03:13;;;;;;;;;5.00;5.00;;;;;36.76;41.53;98456.91;5028693;28;8936;-73
2021/06/22 06:05:42;;;;;;;;;4.40;4.40;;;;;36.75;40.83;98441.63;5028235;28;8878;-69
2021/06/22 06:08:11;;;;;;;;;5.00;5.00;;;;;36.72;41.04;98434.25;5044119;28;8887;-70
2021/06/22 06:10:40;;;;;;;;;4.00;4.00;;;;;36.80;40.72;98436.31;5028970;28;8912;-70
2021/06/22 06:13:08;;;;;;;;;5.00;5.00;;;;;36.83;41.19;98429.16;5032045;28;8855;-69
2021/06/22 06:15:37;;;;;;;;;3.80;3.80;;;;;36.92;41.05;98423.69;5032381;28;8850;-69
2021/06/22 06:18:06;;;;;;;;;3.40;3.40;;;;;37.05;41.14;98420.84;5033242;28;8911;-71
2021/06/22 06:20:35;;;;;;;;;4.00;4.00;;;;;37.15;40.43;98425.16;5034153;28;8961;-69
2021/06/22 06:23:03;;;;;;;;;5.60;5.60;;;;;37.24;40.75;98411.44;5034535;28;9563;-69
2021/06/22 06:25:32;;;;;;;;;6.40;5.80;;;;;37.32;39.18;98411.94;5033401;28;8843;-69
2021/06/22 06:28:05;;;;;;;;;4.40;4.40;;;;;37.38;40.22;98404.59;5032961;28;8834;-69
2021/06/22 06:30:35;;;;;;;;;5.00;5.00;;;;;37.35;40.92;98383.50;5033220;28;8925;-68
2021/06/22 06:33:04;;;;;;;;;4.00;4.00;;;;;37.48;40.14;98392.41;5033227;28;8839;-68
2021/06/22 06:35:32;;;;;;;;;5.00;5.00;;;;;37.45;40.91;98385.81;5033640;28;8920;-68
2021/06/22 06:38:02;;;;;;;;;5.00;5.00;;;;;37.43;39.65;98380.00;5032722;28;8874;-68
2021/06/22 06:40:31;;;;;;;;;5.00;4.00;;;;;37.42;39.70;98381.22;5033884;28;8986;-69
2021/06/22 06:43:01;;;;;;;;;3.20;3.20;;;;;37.35;39.53;98356.75;5034019;28;9009;-69
2021/06/22 06:45:30;;;;;;;;;5.80;5.80;;;;;37.40;39.51;98369.16;5033541;28;8916;-68
2021/06/22 06:47:59;;;;;;;;;4.80;4.80;;;;;37.35;40.01;98361.50;5031596;28;8859;-68
2021/06/22 06:50:28;;;;;;;;;4.00;4.00;;;;;37.26;40.09;98361.47;5033660;28;8863;-69
2021/06/22 06:52:56;;;;;;;;;4.00;4.00;;;;;37.13;39.99;98364.34;5033826;28;8839;-68
2021/06/22 06:55:28;;;;;;;;;4.60;4.60;;;;;37.01;40.29;98362.47;5033606;28;8961;-68
2021/06/22 06:58:00;;;;;;;;;3.00;3.00;;;;;36.89;40.99;98350.38;5029587;28;8941;-69
2021/06/22 07:00:31;;;;;;;;;3.80;3.80;;;;;36.80;40.60;98347.59;5033217;28;8827;-68
2021/06/22 07:03:00;;;;;;;;;4.20;4.20;;;;;36.75;41.35;98345.44;5033447;28;8932;-70
2021/06/22 07:05:29;;;;;;;;;2.60;2.60;;;;;36.77;40.05;98348.50;5031683;28;8843;-69
2021/06/22 07:07:59;;;;;;;;;4.00;4.00;;;;;36.85;40.70;98341.50;5049961;28;8932;-69
2021/06/22 07:10:30;;;;;;;;;3.60;3.60;;;;;37.02;40.50;98333.75;5033927;28;8839;-68
2021/06/22 07:13:00;;;;;;;;;4.40;4.40;;;;;37.18;40.44;98333.47;5032057;28;8854;-69
2021/06/22 07:15:29;;;;;;;;;4.20;4.20;;;;;37.30;39.30;98327.09;5047311;28;9707;-69
2021/06/22 07:17:57;;;;;;;;;3.80;3.80;;;;;37.51;39.19;98322.69;5030915;28;8981;-69
2021/06/22 07:20:26;;;;;;;;;4.20;4.20;;;;;37.67;38.88;98316.88;5031882;28;8858;-69
2021/06/22 07:22:55;;;;;;;;;3.40;3.40;;;;;37.75;39.11;98296.06;5031471;28;8902;-69
2021/06/22 07:25:27;;;;;;;;;3.00;3.00;;;;;37.95;37.98;98309.34;5031421;28;8839;-69
2021/06/22 07:27:57;;;;;;;;;1.60;1.60;;;;;38.01;37.80;98282.72;5031976;28;9721;-69
2021/06/22 07:30:27;;;;;;;;;2.60;2.60;;;;;38.24;37.63;98297.84;5032510;28;8973;-69
2021/06/22 07:32:57;;;;;;;;;3.80;3.80;;;;;38.32;37.80;98301.03;5032333;28;8851;-69
2021/06/22 07:35:29;;;;;;;;;3.20;3.20;;;;;38.35;37.82;98298.09;5032647;28;8851;-69
2021/06/22 07:38:00;;;;;;;;;3.00;3.00;;;;;38.36;37.95;98285.84;5032264;28;8846;-69
2021/06/22 07:40:29;;;;;;;;;3.20;3.20;;;;;38.42;37.25;98280.47;5032193;28;8823;-69
2021/06/22 07:42:59;;;;;;;;;3.60;3.60;;;;;38.29;38.57;98264.13;5026140;28;8857;-69
2021/06/22 07:45:27;;;;;;;;;3.20;3.20;;;;;38.40;38.17;98275.41;5032163;28;8839;-69
2021/06/22 07:47:57;;;;;;;;;1.80;1.80;;;;;38.44;39.13;98267.00;5032038;28;8904;-69
2021/06/22 07:50:28;;;;;;;;;3.80;3.80;;;;;38.52;37.21;98268.19;5031901;28;9665;-69
2021/06/22 07:53:02;;;;;;;;;2.00;2.00;;;;;38.59;36.36;98264.34;5029689;28;8838;-70
2021/06/22 07:55:34;;;;;;;;;4.40;4.40;;;;;38.68;36.44;98254.03;5032283;28;8831;-70
2021/06/22 07:58:03;;;;;;;;;23.00;23.00;;;;;38.72;37.55;98251.09;5031223;28;8940;-70
2021/06/22 08:00:46;;;;;;;;;3.60;3.60;;;;;38.75;37.00;98236.38;5033738;28;8835;-70
2021/06/22 08:03:23;;;;;;;;;5.40;4.40;;;;;38.86;36.88;98244.13;5033337;28;8851;-74
2021/06/22 08:05:53;;;;;;;;;2.60;2.60;;;;;38.90;36.56;98241.94;5032019;28;8867;-71
2021/06/22 08:08:24;;;;;;;;;3.00;3.00;;;;;38.87;37.39;98246.41;5032158;28;8851;-71
2021/06/22 08:10:55;;;;;;;;;2.60;2.60;;;;;38.85;36.88;98246.13;5030936;28;8862;-71
2021/06/22 08:13:34;;;;;;;;;3.80;3.80;;;;;38.80;37.04;98244.75;5031127;28;8859;-71
2021/06/22 08:16:06;;;;;;;;;3.60;3.60;;;;;38.65;35.98;98221.88;5031439;28;8843;-71
2021/06/22 08:18:35;;;;;;;;;6.00;6.00;;;;;38.69;37.04;98233.50;5031168;28;8862;-71
2021/06/22 08:21:05;;;;;;;;;3.00;3.00;;;;;38.73;36.91;98247.13;5030580;28;8847;-71
2021/06/22 08:23:34;;;;;;;;;2.80;2.80;;;;;38.73;36.78;98247.88;5030845;28;9341;-70
2021/06/22 08:26:05;;;;;;;;;2.00;2.00;;;;;38.74;37.28;98241.13;5031042;28;8862;-70
2021/06/22 08:28:33;;;;;;;;;4.00;4.00;;;;;38.64;37.66;98223.13;5030277;28;8919;-69
2021/06/22 08:31:02;;;;;;;;;3.20;3.20;;;;;38.70;37.12;98237.03;5029130;28;9006;-72
2021/06/22 08:33:37;;;;;;;;;7.00;7.00;;;;;38.58;36.73;98222.22;5031940;28;8947;-71
2021/06/22 08:36:06;;;;;;;;;10.20;10.20;;;;;38.60;37.48;98225.28;5031306;28;9564;-72
2021/06/22 08:38:34;;;;;;;;;10.80;10.80;;;;;38.58;37.40;98226.97;5031938;28;8855;-71
2021/06/22 08:41:05;;;;;;;;;6.00;6.00;;;;;38.58;36.83;98222.22;5032531;28;8888;-71
2021/06/22 08:43:34;;;;;;;;;4.60;4.60;;;;;38.63;37.09;98213.31;5031702;28;8984;-72
2021/06/22 08:46:05;;;;;;;;;5.00;5.00;;;;;38.60;37.63;98191.44;5032433;28;8854;-76
2021/06/22 08:48:34;;;;;;;;;6.00;5.60;;;;;38.56;37.34;98196.34;5032527;28;8874;-77
2021/06/22 08:51:03;;;;;;;;;4.40;4.40;;;;;38.49;37.18;98202.97;5041868;28;8886;-73
2021/06/22 08:53:31;;;;;;;;;2.60;2.60;;;;;38.40;37.48;98211.28;5030544;28;8857;-71
2021/06/22 08:56:00;;;;;;;;;3.20;3.20;;;;;38.44;37.17;98203.59;5030899;28;8939;-71
2021/06/22 08:58:29;;;;;;;;;4.20;4.20;;;;;38.54;37.24;98215.34;5031192;28;8854;-71
2021/06/22 09:00:57;;;;;;;;;4.00;4.00;;;;;38.52;36.42;98199.28;5031193;28;8863;-69
2021/06/22 09:03:26;;;;;;;;;3.00;3.00;;;;;38.51;36.86;98192.25;5030883;28;9630;-70
2021/06/22 09:05:59;;;;;;;;;5.00;5.00;;;;;38.55;37.26;98190.06;5031366;28;8862;-70
2021/06/22 09:08:30;;;;;;;;;1.00;1.00;;;;;38.55;36.46;98192.81;5031567;28;8851;-71
2021/06/22 09:11:07;;;;;;;;;2.00;2.00;;;;;38.60;36.39;98192.22;5031531;28;8859;-71
2021/06/22 09:13:36;;;;;;;;;2.60;2.60;;;;;38.54;36.64;98185.03;5031708;28;8862;-71
2021/06/22 09:16:10;;;;;;;;;4.40;4.40;;;;;38.55;36.44;98190.06;5032237;28;8839;-72
2021/06/22 09:18:43;;;;;;;;;3.80;3.80;;;;;38.50;37.10;98174.94;5032519;28;8843;-71
2021/06/22 09:21:24;;;;;;;;;2.00;2.00;;;;;38.42;37.57;98173.75;5032507;28;8851;-71
2021/06/22 09:23:55;;;;;;;;;4.40;4.40;;;;;38.28;38.96;98173.69;5032524;28;8969;-72
2021/06/22 09:26:25;;;;;;;;;1.80;1.80;;;;;38.05;38.38;98178.66;5032564;28;8957;-72
2021/06/22 09:29:13;;;;;;;;;4.80;4.80;;;;;37.79;39.13;98174.78;5032708;28;8831;-72
2021/06/22 09:31:55;;;;;;;;;3.20;3.20;;;;;37.53;39.11;98177.16;5032503;28;8957;-72
2021/06/22 09:34:25;;;;;;;;;4.00;3.80;;;;;37.31;38.85;98171.06;5032395;28;8936;-72
2021/06/22 09:36:58;;;;;;;;;2.60;2.60;;;;;37.21;38.42;98170.28;5031213;28;8842;-72
2021/06/22 09:39:29;;;;;;;;;3.00;3.00;;;;;37.18;38.63;98160.22;5032389;28;8873;-72
2021/06/22 09:41:58;;;;;;;;;2.40;2.40;;;;;37.16;39.05;98168.16;5032410;28;8950;-72
2021/06/22 09:44:34;;;;;;;;;3.00;3.00;;;;;37.14;39.43;98176.09;5032680;28;8863;-72
2021/06/22 09:47:05;;;;;;;;;2.60;2.60;;;;;37.09;39.10;98173.97;5031865;28;8874;-71
2021/06/22 09:49:39;;;;;;;;;3.60;2.80;;;;;37.01;39.24;98168.00;5032206;28;9568;-72
2021/06/22 09:52:14;;;;;;;;;2.00;2.00;;;;;37.05;39.45;98173.34;5032063;28;8842;-72
2021/06/22 09:54:52;;;;;;;;;2.00;2.00;;;;;37.05;38.27;98182.38;5032132;28;8941;-71
2021/06/22 09:57:25;;;;;;;;;2.80;2.80;;;;;37.08;39.26;98186.19;5031998;28;8850;-71
2021/06/22 10:00:05;;;;;;;;;1.80;1.80;;;;;37.04;39.29;98197.34;5032060;28;8838;-72
2021/06/22 10:02:54;;;;;;;;;2.00;2.00;;;;;36.95;38.92;98207.56;5031009;28;8847;-72
2021/06/22 10:05:22;;;;;;;;;1.80;1.80;;;;;36.83;39.17;98212.75;5047269;28;8859;-72
2021/06/22 10:07:59;;;;;;;;;1.80;1.80;;;;;36.65;39.45;98201.69;5032073;28;8862;-72
2021/06/22 10:10:39;;;;;;;;;0.80;0.80;;;;;36.40;39.76;98196.47;5032067;28;8853;-72
2021/06/22 10:13:09;;;;;;;;;1.80;1.80;;;;;36.09;40.69;98194.50;5032305;28;8835;-72
2021/06/22 10:15:38;;;;;;;;;1.00;1.00;;;;;35.86;40.16;98211.47;5032143;28;9619;-72
2021/06/22 10:18:06;;;;;;;;;1.00;1.00;;;;;35.61;40.90;98199.41;5031937;28;8980;-72
2021/06/22 10:20:35;;;;;;;;;1.20;1.20;;;;;35.43;40.90;98207.53;5031918;28;8949;-72
2021/06/22 10:23:03;;;;;;;;;1.20;1.20;;;;;35.31;41.50;98203.63;5032549;28;8929;-72
2021/06/22 10:25:33;;;;;;;;;3.00;3.00;;;;;35.19;40.66;98206.41;5031906;28;8823;-72
2021/06/22 10:28:01;;;;;;;;;1.00;1.00;;;;;35.13;41.35;98206.19;5031763;28;8949;-71
2021/06/22 10:30:30;;;;;;;;;1.00;1.00;;;;;34.99;41.64;98203.97;5031896;28;8853;-71
2021/06/22 10:32:59;;;;;;;;;2.00;2.00;;;;;34.85;41.66;98212.69;5031818;28;8838;-71
2021/06/22 10:35:27;;;;;;;;;1.80;1.80;;;;;34.68;42.29;98217.50;5031816;28;8827;-71
2021/06/22 10:38:07;;;;;;;;;1.00;0.80;;;;;34.50;41.96;98228.28;5031757;28;8830;-71
2021/06/22 10:40:36;;;;;;;;;2.00;2.00;;;;;34.33;42.37;98235.84;5031924;28;8838;-71
2021/06/22 10:43:06;;;;;;;;;2.00;2.00;;;;;34.18;43.03;98227.25;5030482;28;8839;-71
2021/06/22 10:46:03;;;;;;;;;2.80;2.80;;;;;34.06;44.19;98228.00;5031703;28;8854;-71
2021/06/22 10:48:41;;;;;;;;;2.00;2.00;;;;;34.06;44.22;98227.25;5031876;28;8861;-72
2021/06/22 10:51:30;;;;;;;;;2.00;2.00;;;;;34.12;43.99;98231.75;5031687;28;8956;-71
2021/06/22 10:53:59;;;;;;;;;2.00;2.00;;;;;34.24;44.21;98241.16;5032372;28;8834;-71
2021/06/22 10:56:29;;;;;;;;;1.20;1.20;;;;;34.34;44.50;98238.13;5031642;28;8899;-71
2021/06/22 10:59:14;;;;;;;;;3.00;3.00;;;;;34.43;43.63;98248.44;5033164;28;8839;-71
2021/06/22 11:02:02;;;;;;;;;2.40;2.40;;;;;34.54;42.81;98246.13;5035214;28;8933;-72
2021/06/22 11:04:31;;;;;;;;;2.00;2.00;;;;;34.65;42.75;98248.53;5035016;28;8853;-71
2021/06/22 11:07:16;;;;;;;;;2.00;2.00;;;;;34.77;42.64;98244.22;5035173;28;9591;-72
2021/06/22 11:10:16;;;;;;;;;3.00;3.00;;;;;34.88;43.02;98252.91;5035109;28;8843;-71
2021/06/22 11:12:52;;;;;;;;;2.80;2.80;;;;;34.97;42.83;98253.00;5035212;28;8931;-71
2021/06/22 11:15:20;;;;;;;;;2.60;2.60;;;;;35.03;42.84;98256.69;5035057;28;8860;-71
2021/06/22 11:17:57;;;;;;;;;3.20;3.20;;;;;35.01;43.40;98256.38;5034921;28;8849;-71
2021/06/22 11:20:29;;;;;;;;;2.00;2.00;;;;;35.04;43.98;98271.94;5033689;28;8843;-71
2021/06/22 11:23:21;;;;;;;;;4.00;3.60;;;;;34.94;43.13;98273.06;5034906;28;8904;-71
2021/06/22 11:25:52;;;;;;;;;2.80;2.80;;;;;34.94;43.31;98276.56;5033608;28;8968;-71
2021/06/22 11:28:24;;;;;;;;;2.00;2.00;;;;;34.98;42.98;98282.69;5034745;28;8839;-71
2021/06/22 11:30:59;;;;;;;;;3.00;3.00;;;;;35.02;42.61;98290.81;5034733;28;8874;-71
2021/06/22 11:33:46;;;;;;;;;4.20;3.40;;;;;35.06;41.71;98291.47;5034643;28;8835;-71
2021/06/22 11:36:21;;;;;;;;;1.80;1.80;;;;;35.11;41.24;98298.31;5034609;28;8838;-71
2021/06/22 11:39:15;;;;;;;;;3.60;3.60;;;;;35.14;41.49;98306.44;5034732;28;8830;-71
2021/06/22 11:42:09;;;;;;;;;2.00;2.00;;;;;35.16;41.48;98317.72;5034454;28;9603;-71
2021/06/22 11:44:50;;;;;;;;;3.00;3.00;;;;;35.19;41.19;98321.56;5034385;28;8893;-71
2021/06/22 11:47:25;;;;;;;;;2.80;2.80;;;;;35.22;39.91;98343.38;5034326;28;8957;-71
2021/06/22 11:50:01;;;;;;;;;2.00;2.00;;;;;35.21;40.14;98355.56;5034402;28;8866;-71
2021/06/22 11:52:41;;;;;;;;;4.80;4.80;;;;;35.18;43.01;98359.19;5034309;28;8827;-71
2021/06/22 11:55:21;;;;;;;;;6.80;6.80;;;;;35.12;43.23;98349.97;5034248;28;9685;-71
2021/06/22 11:57:58;;;;;;;;;3.00;3.00;;;;;35.05;42.56;98347.50;5034200;28;9552;-71
2021/06/22 12:00:29;;;;;;;;;3.60;3.60;;;;;34.90;43.75;98349.91;5034155;28;8834;-71